sensor_id;sensor_type;location;lat;lon;timestamp;temperature;humidity
42715;DHT22;28351;51.480;5.706;2022-12-07T00:01:08;4.40;99.90
42715;DHT22;28351;51.480;5.706;2022-12-07T00:03:36;4.40;99.90
42715;DHT22;28351;51.480;5.706;2022-12-07T00:06:05;4.40;99.90
42715;DHT22;28351;51.480;5.706;2022-12-07T00:08:31;4.40;99.90
42715;DHT22;28351;51.480;5.706;2022-12-07T00:11:04;4.40;99.90
42715;DHT22;28351;51.480;5.706;2022-12-07T00:13:32;4.40;99.90
42715;DHT22;28351;51.480;5.706;2022-12-07T00:18:29;4.30;99.90
42715;DHT22;28351;51.480;5.706;2022-12-07T00:21:21;4.20;99.90
42715;DHT22;28351;51.480;5.706;2022-12-07T00:23:47;4.20;99.90
42715;DHT22;28351;51.480;5.706;2022-12-07T00:26:16;4.10;99.90
42715;DHT22;28351;51.480;5.706;2022-12-07T00:28:53;4.00;99.90
42715;DHT22;28351;51.480;5.706;2022-12-07T00:31:21;4.10;99.90
42715;DHT22;28351;51.480;5.706;2022-12-07T00:33:50;3.90;99.90
42715;DHT22;28351;51.480;5.706;2022-12-07T00:36:18;3.80;99.90
42715;DHT22;28351;51.480;5.706;2022-12-07T00:38:44;3.80;99.90
42715;DHT22;28351;51.480;5.706;2022-12-07T00:41:15;3.80;99.90
42715;DHT22;28351;51.480;5.706;2022-12-07T00:43:45;3.80;99.90
42715;DHT22;28351;51.480;5.706;2022-12-07T00:46:11;3.80;99.90
42715;DHT22;28351;51.480;5.706;2022-12-07T00:48:37;3.70;99.90
42715;DHT22;28351;51.480;5.706;2022-12-07T00:51:03;3.60;99.90
42715;DHT22;28351;51.480;5.706;2022-12-07T00:53:30;3.50;99.90
42715;DHT22;28351;51.480;5.706;2022-12-07T00:55:55;3.40;99.90
42715;DHT22;28351;51.480;5.706;2022-12-07T00:58:22;3.40;99.90
42715;DHT22;28351;51.480;5.706;2022-12-07T01:00:48;3.30;99.90
42715;DHT22;28351;51.480;5.706;2022-12-07T01:03:15;3.30;99.90
42715;DHT22;28351;51.480;5.706;2022-12-07T01:05:51;3.20;99.90
42715;DHT22;28351;51.480;5.706;2022-12-07T01:08:19;3.20;99.90
42715;DHT22;28351;51.480;5.706;2022-12-07T01:10:45;3.20;99.90
42715;DHT22;28351;51.480;5.706;2022-12-07T01:13:12;3.20;99.90
42715;DHT22;28351;51.480;5.706;2022-12-07T01:15:42;3.30;99.90
42715;DHT22;28351;51.480;5.706;2022-12-07T01:18:08;3.40;99.90
42715;DHT22;28351;51.480;5.706;2022-12-07T01:20:34;3.50;99.90
42715;DHT22;28351;51.480;5.706;2022-12-07T01:23:00;3.70;99.90
42715;DHT22;28351;51.480;5.706;2022-12-07T01:25:25;3.70;99.90
42715;DHT22;28351;51.480;5.706;2022-12-07T01:27:51;3.90;99.90
42715;DHT22;28351;51.480;5.706;2022-12-07T01:30:17;3.90;99.90
42715;DHT22;28351;51.480;5.706;2022-12-07T01:32:42;3.90;99.90
42715;DHT22;28351;51.480;5.706;2022-12-07T01:35:09;3.90;99.90
42715;DHT22;28351;51.480;5.706;2022-12-07T01:37:39;3.90;99.90
42715;DHT22;28351;51.480;5.706;2022-12-07T01:40:06;4.10;99.90
42715;DHT22;28351;51.480;5.706;2022-12-07T01:42:33;4.10;99.90
42715;DHT22;28351;51.480;5.706;2022-12-07T01:45:52;4.10;99.90
42715;DHT22;28351;51.480;5.706;2022-12-07T01:48:15;4.10;99.90
42715;DHT22;28351;51.480;5.706;2022-12-07T01:50:43;4.10;99.90
42715;DHT22;28351;51.480;5.706;2022-12-07T01:53:11;4.10;99.90
42715;DHT22;28351;51.480;5.706;2022-12-07T01:55:44;4.10;99.90
42715;DHT22;28351;51.480;5.706;2022-12-07T01:58:12;4.00;99.90
42715;DHT22;28351;51.480;5.706;2022-12-07T02:00:39;4.00;99.90
42715;DHT22;28351;51.480;5.706;2022-12-07T02:03:27;3.90;99.90
42715;DHT22;28351;51.480;5.706;2022-12-07T02:05:54;3.80;99.90
42715;DHT22;28351;51.480;5.706;2022-12-07T02:08:21;3.70;99.90
42715;DHT22;28351;51.480;5.706;2022-12-07T02:10:47;3.70;99.90
42715;DHT22;28351;51.480;5.706;2022-12-07T02:13:16;3.60;99.90
42715;DHT22;28351;51.480;5.706;2022-12-07T02:30:28;4.10;99.90
42715;DHT22;28351;51.480;5.706;2022-12-07T02:33:14;4.10;99.90
42715;DHT22;28351;51.480;5.706;2022-12-07T02:36:27;4.10;99.90
42715;DHT22;28351;51.480;5.706;2022-12-07T02:38:58;4.00;99.90
42715;DHT22;28351;51.480;5.706;2022-12-07T02:41:29;3.90;99.90
42715;DHT22;28351;51.480;5.706;2022-12-07T02:44:19;3.90;99.90
42715;DHT22;28351;51.480;5.706;2022-12-07T02:46:50;3.90;99.90
42715;DHT22;28351;51.480;5.706;2022-12-07T02:49:17;3.80;99.90
42715;DHT22;28351;51.480;5.706;2022-12-07T02:51:46;3.80;99.90
42715;DHT22;28351;51.480;5.706;2022-12-07T02:54:14;3.60;99.90
42715;DHT22;28351;51.480;5.706;2022-12-07T02:56:47;3.50;99.90
42715;DHT22;28351;51.480;5.706;2022-12-07T03:05:15;3.30;99.90
42715;DHT22;28351;51.480;5.706;2022-12-07T03:08:06;3.20;99.90
42715;DHT22;28351;51.480;5.706;2022-12-07T03:18:29;3.00;99.90
42715;DHT22;28351;51.480;5.706;2022-12-07T03:21:01;2.90;99.90
42715;DHT22;28351;51.480;5.706;2022-12-07T03:23:27;2.90;99.90
42715;DHT22;28351;51.480;5.706;2022-12-07T03:25:58;3.00;99.90
42715;DHT22;28351;51.480;5.706;2022-12-07T03:28:32;3.00;99.90
42715;DHT22;28351;51.480;5.706;2022-12-07T03:33:39;3.30;99.90
42715;DHT22;28351;51.480;5.706;2022-12-07T03:36:11;3.40;99.90
42715;DHT22;28351;51.480;5.706;2022-12-07T03:39:14;3.50;99.90
42715;DHT22;28351;51.480;5.706;2022-12-07T03:41:43;3.60;99.90
42715;DHT22;28351;51.480;5.706;2022-12-07T03:44:09;3.70;99.90
42715;DHT22;28351;51.480;5.706;2022-12-07T03:49:25;3.80;99.90
42715;DHT22;28351;51.480;5.706;2022-12-07T03:57:12;3.90;99.90
42715;DHT22;28351;51.480;5.706;2022-12-07T03:59:43;3.80;99.90
42715;DHT22;28351;51.480;5.706;2022-12-07T04:02:11;3.80;99.90
42715;DHT22;28351;51.480;5.706;2022-12-07T04:04:38;3.70;99.90
42715;DHT22;28351;51.480;5.706;2022-12-07T04:07:04;3.80;99.90
42715;DHT22;28351;51.480;5.706;2022-12-07T04:09:30;3.80;99.90
42715;DHT22;28351;51.480;5.706;2022-12-07T04:11:55;3.80;99.90
42715;DHT22;28351;51.480;5.706;2022-12-07T04:14:21;4.00;99.90
42715;DHT22;28351;51.480;5.706;2022-12-07T04:16:52;4.00;99.90
42715;DHT22;28351;51.480;5.706;2022-12-07T04:19:22;4.00;99.90
42715;DHT22;28351;51.480;5.706;2022-12-07T04:21:48;4.00;99.90
42715;DHT22;28351;51.480;5.706;2022-12-07T04:24:14;4.00;99.90
42715;DHT22;28351;51.480;5.706;2022-12-07T04:26:41;4.00;99.90
42715;DHT22;28351;51.480;5.706;2022-12-07T04:29:08;4.00;99.90
42715;DHT22;28351;51.480;5.706;2022-12-07T04:31:34;4.00;99.90
42715;DHT22;28351;51.480;5.706;2022-12-07T04:34:00;4.00;99.90
42715;DHT22;28351;51.480;5.706;2022-12-07T04:36:26;4.00;99.90
42715;DHT22;28351;51.480;5.706;2022-12-07T04:38:54;4.10;99.90
42715;DHT22;28351;51.480;5.706;2022-12-07T04:41:21;4.00;99.90
42715;DHT22;28351;51.480;5.706;2022-12-07T04:44:04;4.10;99.90
42715;DHT22;28351;51.480;5.706;2022-12-07T04:46:33;4.10;99.90
42715;DHT22;28351;51.480;5.706;2022-12-07T04:48:59;4.00;99.90
42715;DHT22;28351;51.480;5.706;2022-12-07T04:51:27;4.00;99.90
42715;DHT22;28351;51.480;5.706;2022-12-07T04:53:54;3.90;99.90
42715;DHT22;28351;51.480;5.706;2022-12-07T04:56:21;3.90;99.90
42715;DHT22;28351;51.480;5.706;2022-12-07T04:58:47;3.90;99.90
42715;DHT22;28351;51.480;5.706;2022-12-07T05:01:15;4.00;99.90
42715;DHT22;28351;51.480;5.706;2022-12-07T05:03:41;4.00;99.90
42715;DHT22;28351;51.480;5.706;2022-12-07T05:06:08;4.00;99.90
42715;DHT22;28351;51.480;5.706;2022-12-07T05:08:34;4.10;99.90
42715;DHT22;28351;51.480;5.706;2022-12-07T05:11:00;4.10;99.90
42715;DHT22;28351;51.480;5.706;2022-12-07T05:13:26;4.00;99.90
42715;DHT22;28351;51.480;5.706;2022-12-07T05:15:52;3.90;99.90
42715;DHT22;28351;51.480;5.706;2022-12-07T05:18:17;3.90;99.90
42715;DHT22;28351;51.480;5.706;2022-12-07T05:20:44;3.80;99.90
42715;DHT22;28351;51.480;5.706;2022-12-07T05:23:10;3.80;99.90
42715;DHT22;28351;51.480;5.706;2022-12-07T05:25:36;3.70;99.90
42715;DHT22;28351;51.480;5.706;2022-12-07T05:28:02;3.60;99.90
42715;DHT22;28351;51.480;5.706;2022-12-07T05:30:28;3.60;99.90
42715;DHT22;28351;51.480;5.706;2022-12-07T05:32:53;3.50;99.90
42715;DHT22;28351;51.480;5.706;2022-12-07T05:35:19;3.40;99.90
42715;DHT22;28351;51.480;5.706;2022-12-07T05:37:45;3.40;99.90
42715;DHT22;28351;51.480;5.706;2022-12-07T05:40:13;3.30;99.90
42715;DHT22;28351;51.480;5.706;2022-12-07T05:42:39;3.30;99.90
42715;DHT22;28351;51.480;5.706;2022-12-07T05:45:05;3.20;99.90
42715;DHT22;28351;51.480;5.706;2022-12-07T05:47:31;3.20;99.90
42715;DHT22;28351;51.480;5.706;2022-12-07T05:49:57;3.10;99.90
42715;DHT22;28351;51.480;5.706;2022-12-07T05:52:23;3.10;99.90
42715;DHT22;28351;51.480;5.706;2022-12-07T05:54:48;3.00;99.90
42715;DHT22;28351;51.480;5.706;2022-12-07T05:57:14;2.90;99.90
42715;DHT22;28351;51.480;5.706;2022-12-07T05:59:40;2.90;99.90
42715;DHT22;28351;51.480;5.706;2022-12-07T06:02:09;2.80;99.90
42715;DHT22;28351;51.480;5.706;2022-12-07T06:04:37;2.80;99.90
42715;DHT22;28351;51.480;5.706;2022-12-07T06:07:05;2.70;99.90
42715;DHT22;28351;51.480;5.706;2022-12-07T06:09:31;2.70;99.90
42715;DHT22;28351;51.480;5.706;2022-12-07T06:11:57;2.60;99.90
42715;DHT22;28351;51.480;5.706;2022-12-07T06:14:42;2.60;99.90
42715;DHT22;28351;51.480;5.706;2022-12-07T06:17:08;2.60;99.90
42715;DHT22;28351;51.480;5.706;2022-12-07T06:19:34;2.60;99.90
42715;DHT22;28351;51.480;5.706;2022-12-07T06:22:01;2.60;99.90
42715;DHT22;28351;51.480;5.706;2022-12-07T06:27:14;2.60;99.90
42715;DHT22;28351;51.480;5.706;2022-12-07T06:29:39;2.60;99.90
42715;DHT22;28351;51.480;5.706;2022-12-07T06:32:05;2.60;99.90
42715;DHT22;28351;51.480;5.706;2022-12-07T06:34:30;2.50;99.90
42715;DHT22;28351;51.480;5.706;2022-12-07T06:36:56;2.50;99.90
42715;DHT22;28351;51.480;5.706;2022-12-07T06:39:24;2.50;99.90
42715;DHT22;28351;51.480;5.706;2022-12-07T06:41:50;2.50;99.90
42715;DHT22;28351;51.480;5.706;2022-12-07T06:44:17;2.50;99.90
42715;DHT22;28351;51.480;5.706;2022-12-07T06:46:43;2.50;99.90
42715;DHT22;28351;51.480;5.706;2022-12-07T06:49:09;2.50;99.90
42715;DHT22;28351;51.480;5.706;2022-12-07T06:51:35;2.50;99.90
42715;DHT22;28351;51.480;5.706;2022-12-07T06:54:02;2.50;99.90
42715;DHT22;28351;51.480;5.706;2022-12-07T06:56:29;2.40;99.90
42715;DHT22;28351;51.480;5.706;2022-12-07T06:58:54;2.40;99.90
42715;DHT22;28351;51.480;5.706;2022-12-07T07:01:20;2.40;99.90
42715;DHT22;28351;51.480;5.706;2022-12-07T07:03:46;2.40;99.90
42715;DHT22;28351;51.480;5.706;2022-12-07T07:06:12;2.50;99.90
42715;DHT22;28351;51.480;5.706;2022-12-07T07:08:39;2.50;99.90
42715;DHT22;28351;51.480;5.706;2022-12-07T07:11:06;2.50;99.90
42715;DHT22;28351;51.480;5.706;2022-12-07T07:16:15;2.70;99.90
42715;DHT22;28351;51.480;5.706;2022-12-07T07:18:40;2.70;99.90
42715;DHT22;28351;51.480;5.706;2022-12-07T07:21:06;2.70;99.90
42715;DHT22;28351;51.480;5.706;2022-12-07T07:23:32;2.60;99.90
42715;DHT22;28351;51.480;5.706;2022-12-07T07:25:57;2.70;99.90
42715;DHT22;28351;51.480;5.706;2022-12-07T07:28:23;2.70;99.90
42715;DHT22;28351;51.480;5.706;2022-12-07T07:30:54;2.80;99.90
42715;DHT22;28351;51.480;5.706;2022-12-07T07:36:04;3.00;99.90
42715;DHT22;28351;51.480;5.706;2022-12-07T07:38:58;3.00;99.90
42715;DHT22;28351;51.480;5.706;2022-12-07T07:44:31;2.80;99.90
42715;DHT22;28351;51.480;5.706;2022-12-07T07:46:57;2.80;99.90
42715;DHT22;28351;51.480;5.706;2022-12-07T07:49:22;2.70;99.90
42715;DHT22;28351;51.480;5.706;2022-12-07T07:51:48;2.80;99.90
42715;DHT22;28351;51.480;5.706;2022-12-07T07:54:15;2.90;99.90
42715;DHT22;28351;51.480;5.706;2022-12-07T07:59:49;3.10;99.90
42715;DHT22;28351;51.480;5.706;2022-12-07T08:02:16;3.00;99.90
42715;DHT22;28351;51.480;5.706;2022-12-07T08:04:42;3.10;99.90
42715;DHT22;28351;51.480;5.706;2022-12-07T08:07:08;3.10;99.90
42715;DHT22;28351;51.480;5.706;2022-12-07T08:09:34;3.00;99.90
42715;DHT22;28351;51.480;5.706;2022-12-07T08:12:00;3.10;99.90
42715;DHT22;28351;51.480;5.706;2022-12-07T08:14:26;3.00;99.90
42715;DHT22;28351;51.480;5.706;2022-12-07T08:16:52;3.00;99.90
42715;DHT22;28351;51.480;5.706;2022-12-07T08:19:18;3.00;99.90
42715;DHT22;28351;51.480;5.706;2022-12-07T08:21:44;3.00;99.90
42715;DHT22;28351;51.480;5.706;2022-12-07T08:24:15;3.00;99.90
42715;DHT22;28351;51.480;5.706;2022-12-07T08:26:42;3.00;99.90
42715;DHT22;28351;51.480;5.706;2022-12-07T08:29:07;3.00;99.90
42715;DHT22;28351;51.480;5.706;2022-12-07T08:31:33;3.00;99.90
42715;DHT22;28351;51.480;5.706;2022-12-07T08:39:29;3.40;99.90
42715;DHT22;28351;51.480;5.706;2022-12-07T08:41:55;3.50;99.90
42715;DHT22;28351;51.480;5.706;2022-12-07T08:44:20;3.60;99.90
42715;DHT22;28351;51.480;5.706;2022-12-07T08:46:50;3.70;99.90
42715;DHT22;28351;51.480;5.706;2022-12-07T08:49:26;3.70;99.90
42715;DHT22;28351;51.480;5.706;2022-12-07T08:51:52;3.80;99.90
42715;DHT22;28351;51.480;5.706;2022-12-07T08:54:18;3.90;99.90
42715;DHT22;28351;51.480;5.706;2022-12-07T08:56:45;3.90;99.90
42715;DHT22;28351;51.480;5.706;2022-12-07T08:59:14;3.90;99.90
42715;DHT22;28351;51.480;5.706;2022-12-07T09:01:41;4.00;99.90
42715;DHT22;28351;51.480;5.706;2022-12-07T09:04:06;4.00;99.90
42715;DHT22;28351;51.480;5.706;2022-12-07T09:06:33;4.00;99.90
42715;DHT22;28351;51.480;5.706;2022-12-07T09:09:01;4.00;99.90
42715;DHT22;28351;51.480;5.706;2022-12-07T09:11:27;4.10;99.90
42715;DHT22;28351;51.480;5.706;2022-12-07T09:13:52;4.20;99.90
42715;DHT22;28351;51.480;5.706;2022-12-07T09:16:18;4.30;99.90
42715;DHT22;28351;51.480;5.706;2022-12-07T09:18:44;4.40;99.90
42715;DHT22;28351;51.480;5.706;2022-12-07T09:21:09;4.50;99.90
42715;DHT22;28351;51.480;5.706;2022-12-07T09:23:35;4.50;99.90
42715;DHT22;28351;51.480;5.706;2022-12-07T09:26:02;4.60;99.90
42715;DHT22;28351;51.480;5.706;2022-12-07T09:28:30;4.60;99.90
42715;DHT22;28351;51.480;5.706;2022-12-07T09:30:56;4.70;99.90
42715;DHT22;28351;51.480;5.706;2022-12-07T09:33:22;4.70;99.90
42715;DHT22;28351;51.480;5.706;2022-12-07T09:35:48;4.70;99.90
42715;DHT22;28351;51.480;5.706;2022-12-07T09:38:15;4.80;99.90
42715;DHT22;28351;51.480;5.706;2022-12-07T09:40:42;4.80;99.90
42715;DHT22;28351;51.480;5.706;2022-12-07T09:43:18;4.90;99.90
42715;DHT22;28351;51.480;5.706;2022-12-07T09:45:45;4.90;99.90
42715;DHT22;28351;51.480;5.706;2022-12-07T09:48:29;4.90;99.90
42715;DHT22;28351;51.480;5.706;2022-12-07T09:50:58;4.90;99.90
42715;DHT22;28351;51.480;5.706;2022-12-07T09:53:36;5.00;99.90
42715;DHT22;28351;51.480;5.706;2022-12-07T09:56:05;5.00;99.90
42715;DHT22;28351;51.480;5.706;2022-12-07T09:58:33;5.00;99.90
42715;DHT22;28351;51.480;5.706;2022-12-07T10:01:14;5.00;99.90
42715;DHT22;28351;51.480;5.706;2022-12-07T10:03:55;5.10;99.90
42715;DHT22;28351;51.480;5.706;2022-12-07T10:06:24;5.20;99.90
42715;DHT22;28351;51.480;5.706;2022-12-07T10:08:51;5.20;99.90
42715;DHT22;28351;51.480;5.706;2022-12-07T10:11:17;5.30;99.90
42715;DHT22;28351;51.480;5.706;2022-12-07T10:13:49;5.40;99.90
42715;DHT22;28351;51.480;5.706;2022-12-07T10:18:51;5.30;99.90
42715;DHT22;28351;51.480;5.706;2022-12-07T10:21:19;5.10;99.90
42715;DHT22;28351;51.480;5.706;2022-12-07T10:24:04;5.10;99.90
42715;DHT22;28351;51.480;5.706;2022-12-07T10:29:28;5.20;99.90
42715;DHT22;28351;51.480;5.706;2022-12-07T10:32:08;5.30;99.90
42715;DHT22;28351;51.480;5.706;2022-12-07T10:34:51;5.40;99.90
42715;DHT22;28351;51.480;5.706;2022-12-07T10:37:41;5.50;99.90
42715;DHT22;28351;51.480;5.706;2022-12-07T10:43:18;6.00;99.90
42715;DHT22;28351;51.480;5.706;2022-12-07T10:48:41;6.40;99.90
42715;DHT22;28351;51.480;5.706;2022-12-07T10:54:10;6.80;99.90
42715;DHT22;28351;51.480;5.706;2022-12-07T10:59:37;6.60;99.90
42715;DHT22;28351;51.480;5.706;2022-12-07T11:05:27;6.70;99.90
42715;DHT22;28351;51.480;5.706;2022-12-07T11:10:57;7.40;99.90
42715;DHT22;28351;51.480;5.706;2022-12-07T11:14:16;7.90;99.90
42715;DHT22;28351;51.480;5.706;2022-12-07T11:16:56;8.30;99.90
42715;DHT22;28351;51.480;5.706;2022-12-07T11:22:51;8.50;99.90
42715;DHT22;28351;51.480;5.706;2022-12-07T11:25:32;8.60;99.90
42715;DHT22;28351;51.480;5.706;2022-12-07T11:36:40;8.70;99.90
42715;DHT22;28351;51.480;5.706;2022-12-07T11:41:48;8.10;99.90
42715;DHT22;28351;51.480;5.706;2022-12-07T11:44:50;7.90;99.90
42715;DHT22;28351;51.480;5.706;2022-12-07T11:50:13;7.60;99.90
42715;DHT22;28351;51.480;5.706;2022-12-07T11:58:26;7.50;99.90
42715;DHT22;28351;51.480;5.706;2022-12-07T12:06:40;7.50;99.90
42715;DHT22;28351;51.480;5.706;2022-12-07T12:09:12;7.60;99.90
42715;DHT22;28351;51.480;5.706;2022-12-07T12:17:12;7.60;99.90
42715;DHT22;28351;51.480;5.706;2022-12-07T12:20:04;7.50;99.90
42715;DHT22;28351;51.480;5.706;2022-12-07T12:22:40;7.50;99.90
42715;DHT22;28351;51.480;5.706;2022-12-07T12:25:29;7.40;99.90
42715;DHT22;28351;51.480;5.706;2022-12-07T12:27:58;7.50;99.90
42715;DHT22;28351;51.480;5.706;2022-12-07T12:30:37;7.70;99.90
42715;DHT22;28351;51.480;5.706;2022-12-07T12:35:39;7.90;99.90
42715;DHT22;28351;51.480;5.706;2022-12-07T12:38:31;9.70;99.90
42715;DHT22;28351;51.480;5.706;2022-12-07T12:41:00;11.80;99.90
42715;DHT22;28351;51.480;5.706;2022-12-07T12:43:50;12.90;99.90
42715;DHT22;28351;51.480;5.706;2022-12-07T12:51:42;11.20;99.90
42715;DHT22;28351;51.480;5.706;2022-12-07T12:54:15;10.00;99.90
42715;DHT22;28351;51.480;5.706;2022-12-07T12:59:24;9.40;99.90
42715;DHT22;28351;51.480;5.706;2022-12-07T13:02:34;9.20;99.90
42715;DHT22;28351;51.480;5.706;2022-12-07T13:04:55;9.00;99.90
42715;DHT22;28351;51.480;5.706;2022-12-07T13:15:36;8.90;99.90
42715;DHT22;28351;51.480;5.706;2022-12-07T13:20:43;10.70;99.90
42715;DHT22;28351;51.480;5.706;2022-12-07T13:23:08;11.60;99.90
42715;DHT22;28351;51.480;5.706;2022-12-07T13:25:41;10.80;99.90
42715;DHT22;28351;51.480;5.706;2022-12-07T13:28:16;9.70;99.90
42715;DHT22;28351;51.480;5.706;2022-12-07T13:33:34;8.50;99.90
42715;DHT22;28351;51.480;5.706;2022-12-07T13:36:00;8.40;99.90
42715;DHT22;28351;51.480;5.706;2022-12-07T13:38:29;8.20;99.90
42715;DHT22;28351;51.480;5.706;2022-12-07T13:41:23;8.00;99.90
42715;DHT22;28351;51.480;5.706;2022-12-07T13:44:08;7.70;99.90
42715;DHT22;28351;51.480;5.706;2022-12-07T13:46:45;7.50;99.90
42715;DHT22;28351;51.480;5.706;2022-12-07T13:49:36;7.30;99.90
42715;DHT22;28351;51.480;5.706;2022-12-07T13:52:19;7.20;99.90
42715;DHT22;28351;51.480;5.706;2022-12-07T13:54:55;7.10;99.90
42715;DHT22;28351;51.480;5.706;2022-12-07T13:57:22;7.00;99.90
42715;DHT22;28351;51.480;5.706;2022-12-07T14:03:02;6.90;99.90
42715;DHT22;28351;51.480;5.706;2022-12-07T14:05:35;6.80;99.90
42715;DHT22;28351;51.480;5.706;2022-12-07T14:08:24;6.80;99.90
42715;DHT22;28351;51.480;5.706;2022-12-07T14:15:56;6.70;99.90
42715;DHT22;28351;51.480;5.706;2022-12-07T14:18:36;6.70;99.90
42715;DHT22;28351;51.480;5.706;2022-12-07T14:21:24;6.70;99.90
42715;DHT22;28351;51.480;5.706;2022-12-07T14:24:12;6.70;99.90
42715;DHT22;28351;51.480;5.706;2022-12-07T14:26:41;6.70;99.90
42715;DHT22;28351;51.480;5.706;2022-12-07T14:29:30;6.70;99.90
42715;DHT22;28351;51.480;5.706;2022-12-07T14:31:58;6.80;99.90
42715;DHT22;28351;51.480;5.706;2022-12-07T14:34:24;6.80;99.90
42715;DHT22;28351;51.480;5.706;2022-12-07T14:36:51;6.80;99.90
42715;DHT22;28351;51.480;5.706;2022-12-07T14:39:17;6.90;99.90
42715;DHT22;28351;51.480;5.706;2022-12-07T14:41:43;6.90;99.90
42715;DHT22;28351;51.480;5.706;2022-12-07T14:44:20;6.80;99.90
42715;DHT22;28351;51.480;5.706;2022-12-07T14:46:48;6.80;99.90
42715;DHT22;28351;51.480;5.706;2022-12-07T14:49:15;6.80;99.90
42715;DHT22;28351;51.480;5.706;2022-12-07T14:51:44;6.80;99.90
42715;DHT22;28351;51.480;5.706;2022-12-07T14:54:17;6.80;99.90
42715;DHT22;28351;51.480;5.706;2022-12-07T14:56:44;6.70;99.90
42715;DHT22;28351;51.480;5.706;2022-12-07T14:59:11;6.60;99.90
42715;DHT22;28351;51.480;5.706;2022-12-07T15:01:37;6.50;99.90
42715;DHT22;28351;51.480;5.706;2022-12-07T15:04:03;6.40;99.90
42715;DHT22;28351;51.480;5.706;2022-12-07T15:06:28;6.30;99.90
42715;DHT22;28351;51.480;5.706;2022-12-07T15:08:54;6.20;99.90
42715;DHT22;28351;51.480;5.706;2022-12-07T15:11:20;6.10;99.90
42715;DHT22;28351;51.480;5.706;2022-12-07T15:13:46;6.00;99.90
42715;DHT22;28351;51.480;5.706;2022-12-07T15:16:30;5.90;99.90
42715;DHT22;28351;51.480;5.706;2022-12-07T15:18:56;5.90;99.90
42715;DHT22;28351;51.480;5.706;2022-12-07T15:21:22;5.90;99.90
42715;DHT22;28351;51.480;5.706;2022-12-07T15:23:47;5.90;99.90
42715;DHT22;28351;51.480;5.706;2022-12-07T15:26:14;5.80;99.90
42715;DHT22;28351;51.480;5.706;2022-12-07T15:28:41;5.80;99.90
42715;DHT22;28351;51.480;5.706;2022-12-07T15:31:16;5.80;99.90
42715;DHT22;28351;51.480;5.706;2022-12-07T15:33:42;5.70;99.90
42715;DHT22;28351;51.480;5.706;2022-12-07T15:36:12;5.70;99.90
42715;DHT22;28351;51.480;5.706;2022-12-07T15:38:44;5.70;99.90
42715;DHT22;28351;51.480;5.706;2022-12-07T15:41:10;5.60;99.90
42715;DHT22;28351;51.480;5.706;2022-12-07T15:43:36;5.50;99.90
42715;DHT22;28351;51.480;5.706;2022-12-07T15:46:20;5.40;99.90
42715;DHT22;28351;51.480;5.706;2022-12-07T15:48:46;5.40;99.90
42715;DHT22;28351;51.480;5.706;2022-12-07T15:51:12;5.30;99.90
42715;DHT22;28351;51.480;5.706;2022-12-07T15:53:38;5.30;99.90
42715;DHT22;28351;51.480;5.706;2022-12-07T15:56:08;5.30;99.90
42715;DHT22;28351;51.480;5.706;2022-12-07T15:58:34;5.20;99.90
42715;DHT22;28351;51.480;5.706;2022-12-07T16:00:59;5.20;99.90
42715;DHT22;28351;51.480;5.706;2022-12-07T16:03:27;5.20;99.90
42715;DHT22;28351;51.480;5.706;2022-12-07T16:05:53;5.20;99.90
42715;DHT22;28351;51.480;5.706;2022-12-07T16:08:18;5.30;99.90
42715;DHT22;28351;51.480;5.706;2022-12-07T16:10:44;5.30;99.90
42715;DHT22;28351;51.480;5.706;2022-12-07T16:13:11;5.40;99.90
42715;DHT22;28351;51.480;5.706;2022-12-07T16:15:40;5.30;99.90
42715;DHT22;28351;51.480;5.706;2022-12-07T16:18:06;5.40;99.90
42715;DHT22;28351;51.480;5.706;2022-12-07T16:20:32;5.40;99.90
42715;DHT22;28351;51.480;5.706;2022-12-07T16:22:58;5.40;99.90
42715;DHT22;28351;51.480;5.706;2022-12-07T16:25:23;5.30;99.90
42715;DHT22;28351;51.480;5.706;2022-12-07T16:27:50;5.40;99.90
42715;DHT22;28351;51.480;5.706;2022-12-07T16:30:15;5.40;99.90
42715;DHT22;28351;51.480;5.706;2022-12-07T16:32:42;5.40;99.90
42715;DHT22;28351;51.480;5.706;2022-12-07T16:35:08;5.40;99.90
42715;DHT22;28351;51.480;5.706;2022-12-07T16:37:34;5.40;99.90
42715;DHT22;28351;51.480;5.706;2022-12-07T16:40:00;5.40;99.90
42715;DHT22;28351;51.480;5.706;2022-12-07T16:42:25;5.50;99.90
42715;DHT22;28351;51.480;5.706;2022-12-07T16:44:52;5.40;99.90
42715;DHT22;28351;51.480;5.706;2022-12-07T16:47:17;5.40;99.90
42715;DHT22;28351;51.480;5.706;2022-12-07T16:49:43;5.40;99.90
42715;DHT22;28351;51.480;5.706;2022-12-07T16:52:09;5.50;99.90
42715;DHT22;28351;51.480;5.706;2022-12-07T16:54:35;5.40;99.90
42715;DHT22;28351;51.480;5.706;2022-12-07T16:57:01;5.30;99.90
42715;DHT22;28351;51.480;5.706;2022-12-07T16:59:27;5.30;99.90
42715;DHT22;28351;51.480;5.706;2022-12-07T17:01:52;5.30;99.90
42715;DHT22;28351;51.480;5.706;2022-12-07T17:04:18;5.20;99.90
42715;DHT22;28351;51.480;5.706;2022-12-07T17:06:57;5.30;99.90
42715;DHT22;28351;51.480;5.706;2022-12-07T17:09:23;5.30;99.90
42715;DHT22;28351;51.480;5.706;2022-12-07T17:11:49;5.30;99.90
42715;DHT22;28351;51.480;5.706;2022-12-07T17:14:14;5.30;99.90
42715;DHT22;28351;51.480;5.706;2022-12-07T17:17:17;5.30;99.90
42715;DHT22;28351;51.480;5.706;2022-12-07T17:19:42;5.30;99.90
42715;DHT22;28351;51.480;5.706;2022-12-07T17:22:08;5.30;99.90
42715;DHT22;28351;51.480;5.706;2022-12-07T17:25:02;5.30;99.90
42715;DHT22;28351;51.480;5.706;2022-12-07T17:27:52;5.30;99.90
42715;DHT22;28351;51.480;5.706;2022-12-07T17:30:18;5.30;99.90
42715;DHT22;28351;51.480;5.706;2022-12-07T17:32:44;5.30;99.90
42715;DHT22;28351;51.480;5.706;2022-12-07T17:35:10;5.20;99.90
42715;DHT22;28351;51.480;5.706;2022-12-07T17:37:36;5.30;99.90
42715;DHT22;28351;51.480;5.706;2022-12-07T17:40:02;5.20;99.90
42715;DHT22;28351;51.480;5.706;2022-12-07T17:42:28;5.20;99.90
42715;DHT22;28351;51.480;5.706;2022-12-07T17:45:09;5.20;99.90
42715;DHT22;28351;51.480;5.706;2022-12-07T17:47:36;5.10;99.90
42715;DHT22;28351;51.480;5.706;2022-12-07T17:50:04;5.10;99.90
42715;DHT22;28351;51.480;5.706;2022-12-07T17:52:30;5.10;99.90
42715;DHT22;28351;51.480;5.706;2022-12-07T17:55:16;5.00;99.90
42715;DHT22;28351;51.480;5.706;2022-12-07T17:57:42;5.00;99.90
42715;DHT22;28351;51.480;5.706;2022-12-07T18:00:10;4.90;99.90
42715;DHT22;28351;51.480;5.706;2022-12-07T18:02:38;4.90;99.90
42715;DHT22;28351;51.480;5.706;2022-12-07T18:05:04;5.00;99.90
42715;DHT22;28351;51.480;5.706;2022-12-07T18:07:29;5.00;99.90
42715;DHT22;28351;51.480;5.706;2022-12-07T18:09:57;5.00;99.90
42715;DHT22;28351;51.480;5.706;2022-12-07T18:12:24;5.10;99.90
42715;DHT22;28351;51.480;5.706;2022-12-07T18:14:49;5.20;99.90
42715;DHT22;28351;51.480;5.706;2022-12-07T18:17:16;5.20;99.90
42715;DHT22;28351;51.480;5.706;2022-12-07T18:19:42;5.10;99.90
42715;DHT22;28351;51.480;5.706;2022-12-07T18:22:08;5.20;99.90
42715;DHT22;28351;51.480;5.706;2022-12-07T18:24:34;5.20;99.90
42715;DHT22;28351;51.480;5.706;2022-12-07T18:26:59;5.10;99.90
42715;DHT22;28351;51.480;5.706;2022-12-07T18:29:26;5.10;99.90
42715;DHT22;28351;51.480;5.706;2022-12-07T18:31:52;5.00;99.90
42715;DHT22;28351;51.480;5.706;2022-12-07T18:34:18;5.00;99.90